Weather at Saint-Étienne-Bouthéon Airport

Public forecast

Using degrees Celsius for public forecast. Weather courtesy of forecast.io.

Current aviation weather report (METAR) for Saint-Étienne-Bouthéon Airport

Retrieved 2020/09/20 10:30 UTC (0 seconds ago):

LFMH 201030Z AUTO VRB02KT 9999 FEW001 BKN120 19/15 Q1016 TEMPO SHRA FEW040CB BKN055

Aviation forecast (TAF) for Saint-Étienne-Bouthéon Airport

Retrieved 2020/09/20 09:42 UTC (32 minutes ago):

TAF LFMH 200800Z 2009/2109 VRB03KT 9999 FEW020 OVC100 TEMPO 2012/2019 SHRA FEW040CB BKN055 PROB30 TEMPO 2013/2018 VRB15KT 2500 TSRA BKN040CB PROB40 TEMPO 2103/2109 4000 -RA BR BKN014 PROB30 TEMPO 2105/2107 2000 RA BR BKN004